sensor_id;sensor_type;location;lat;lon;timestamp;pressure;altitude;pressure_sealevel;temperature;humidity
13867;BME280;7003;46.982;15.248;2023-08-21T00:00:51;97784.72;;;19.71;100.00
13867;BME280;7003;46.982;15.248;2023-08-21T00:03:22;97789.16;;;19.56;100.00
13867;BME280;7003;46.982;15.248;2023-08-21T00:05:49;97782.66;;;19.61;100.00
13867;BME280;7003;46.982;15.248;2023-08-21T00:08:16;97791.53;;;19.62;100.00
13867;BME280;7003;46.982;15.248;2023-08-21T00:10:43;97783.50;;;19.69;100.00
13867;BME280;7003;46.982;15.248;2023-08-21T00:13:11;97785.41;;;19.65;100.00
13867;BME280;7003;46.982;15.248;2023-08-21T00:15:39;97789.97;;;19.60;100.00
13867;BME280;7003;46.982;15.248;2023-08-21T00:18:06;97783.03;;;19.59;100.00
13867;BME280;7003;46.982;15.248;2023-08-21T00:20:33;97782.38;;;19.40;100.00
13867;BME280;7003;46.982;15.248;2023-08-21T00:23:00;97775.78;;;19.37;100.00
13867;BME280;7003;46.982;15.248;2023-08-21T00:25:30;97776.84;;;19.29;100.00
13867;BME280;7003;46.982;15.248;2023-08-21T00:27:59;97783.44;;;19.32;100.00
13867;BME280;7003;46.982;15.248;2023-08-21T00:30:30;97781.88;;;19.31;100.00
13867;BME280;7003;46.982;15.248;2023-08-21T00:32:59;97775.97;;;19.21;100.00
13867;BME280;7003;46.982;15.248;2023-08-21T00:35:27;97778.09;;;19.35;100.00
13867;BME280;7003;46.982;15.248;2023-08-21T00:37:56;97775.75;;;19.34;100.00
13867;BME280;7003;46.982;15.248;2023-08-21T00:40:26;97777.34;;;19.38;100.00
13867;BME280;7003;46.982;15.248;2023-08-21T00:42:53;97783.53;;;19.39;100.00
13867;BME280;7003;46.982;15.248;2023-08-21T00:45:24;97779.75;;;19.43;100.00
13867;BME280;7003;46.982;15.248;2023-08-21T00:47:52;97783.50;;;19.35;100.00
13867;BME280;7003;46.982;15.248;2023-08-21T00:50:22;97790.47;;;19.40;100.00
13867;BME280;7003;46.982;15.248;2023-08-21T00:52:51;97780.75;;;19.32;100.00
13867;BME280;7003;46.982;15.248;2023-08-21T00:55:21;97782.81;;;19.45;100.00
13867;BME280;7003;46.982;15.248;2023-08-21T00:57:52;97785.03;;;19.36;100.00
13867;BME280;7003;46.982;15.248;2023-08-21T01:00:23;97781.84;;;19.27;100.00
13867;BME280;7003;46.982;15.248;2023-08-21T01:02:52;97790.28;;;19.26;100.00
13867;BME280;7003;46.982;15.248;2023-08-21T01:05:21;97780.13;;;19.15;100.00
13867;BME280;7003;46.982;15.248;2023-08-21T01:07:53;97789.59;;;19.02;100.00
13867;BME280;7003;46.982;15.248;2023-08-21T01:10:30;97790.41;;;19.06;100.00
13867;BME280;7003;46.982;15.248;2023-08-21T01:13:05;97790.06;;;19.08;100.00
13867;BME280;7003;46.982;15.248;2023-08-21T01:15:35;97792.28;;;19.02;100.00
13867;BME280;7003;46.982;15.248;2023-08-21T01:18:07;97797.34;;;19.04;100.00
13867;BME280;7003;46.982;15.248;2023-08-21T01:20:36;97786.59;;;19.07;100.00
13867;BME280;7003;46.982;15.248;2023-08-21T01:23:04;97781.28;;;19.14;100.00
13867;BME280;7003;46.982;15.248;2023-08-21T01:25:33;97787.34;;;19.08;100.00
13867;BME280;7003;46.982;15.248;2023-08-21T01:28:01;97790.06;;;19.08;100.00
13867;BME280;7003;46.982;15.248;2023-08-21T01:30:31;97782.28;;;19.03;100.00
13867;BME280;7003;46.982;15.248;2023-08-21T01:33:05;97786.91;;;19.02;100.00
13867;BME280;7003;46.982;15.248;2023-08-21T01:35:33;97775.88;;;18.84;100.00
13867;BME280;7003;46.982;15.248;2023-08-21T01:38:04;97786.31;;;18.90;100.00
13867;BME280;7003;46.982;15.248;2023-08-21T01:40:36;97788.41;;;19.00;100.00
13867;BME280;7003;46.982;15.248;2023-08-21T01:43:03;97783.69;;;18.93;100.00
13867;BME280;7003;46.982;15.248;2023-08-21T01:45:30;97783.78;;;19.00;100.00
13867;BME280;7003;46.982;15.248;2023-08-21T01:48:00;97789.25;;;19.04;100.00
13867;BME280;7003;46.982;15.248;2023-08-21T01:50:27;97777.81;;;19.14;100.00
13867;BME280;7003;46.982;15.248;2023-08-21T01:52:54;97789.59;;;19.02;100.00
13867;BME280;7003;46.982;15.248;2023-08-21T01:55:21;97789.25;;;19.04;100.00
13867;BME280;7003;46.982;15.248;2023-08-21T01:57:50;97785.44;;;19.08;100.00
13867;BME280;7003;46.982;15.248;2023-08-21T02:00:17;97777.28;;;19.05;100.00
13867;BME280;7003;46.982;15.248;2023-08-21T02:02:44;97784.94;;;18.99;100.00
13867;BME280;7003;46.982;15.248;2023-08-21T02:05:14;97782.81;;;18.86;100.00
13867;BME280;7003;46.982;15.248;2023-08-21T02:07:43;97782.59;;;18.98;100.00
13867;BME280;7003;46.982;15.248;2023-08-21T02:10:13;97792.38;;;19.09;100.00
13867;BME280;7003;46.982;15.248;2023-08-21T02:12:41;97786.22;;;19.09;100.00
13867;BME280;7003;46.982;15.248;2023-08-21T02:15:10;97785.03;;;19.06;100.00
13867;BME280;7003;46.982;15.248;2023-08-21T02:17:45;97780.81;;;19.09;100.00
13867;BME280;7003;46.982;15.248;2023-08-21T02:20:16;97783.84;;;19.04;100.00
13867;BME280;7003;46.982;15.248;2023-08-21T02:22:43;97785.38;;;19.05;100.00
13867;BME280;7003;46.982;15.248;2023-08-21T02:25:10;97776.75;;;18.92;100.00
13867;BME280;7003;46.982;15.248;2023-08-21T02:27:40;97781.72;;;18.90;100.00
13867;BME280;7003;46.982;15.248;2023-08-21T02:30:11;97779.78;;;18.91;100.00
13867;BME280;7003;46.982;15.248;2023-08-21T02:32:39;97781.97;;;18.81;100.00
13867;BME280;7003;46.982;15.248;2023-08-21T02:35:07;97775.75;;;18.77;100.00
13867;BME280;7003;46.982;15.248;2023-08-21T02:37:38;97786.09;;;18.72;100.00
13867;BME280;7003;46.982;15.248;2023-08-21T02:40:08;97785.22;;;18.68;100.00
13867;BME280;7003;46.982;15.248;2023-08-21T02:42:36;97780.28;;;18.70;100.00
13867;BME280;7003;46.982;15.248;2023-08-21T02:45:07;97786.75;;;18.65;100.00
13867;BME280;7003;46.982;15.248;2023-08-21T02:47:37;97784.78;;;18.62;100.00
13867;BME280;7003;46.982;15.248;2023-08-21T02:50:07;97791.66;;;18.60;100.00
13867;BME280;7003;46.982;15.248;2023-08-21T02:52:34;97785.97;;;18.42;100.00
13867;BME280;7003;46.982;15.248;2023-08-21T02:55:02;97785.84;;;18.35;100.00
13867;BME280;7003;46.982;15.248;2023-08-21T02:57:32;97790.59;;;18.41;100.00
13867;BME280;7003;46.982;15.248;2023-08-21T03:00:02;97790.69;;;18.49;100.00
13867;BME280;7003;46.982;15.248;2023-08-21T03:02:30;97787.81;;;18.61;100.00
13867;BME280;7003;46.982;15.248;2023-08-21T03:05:01;97788.47;;;18.54;100.00
13867;BME280;7003;46.982;15.248;2023-08-21T03:07:31;97786.34;;;18.63;100.00
13867;BME280;7003;46.982;15.248;2023-08-21T03:10:01;97783.75;;;18.70;100.00
13867;BME280;7003;46.982;15.248;2023-08-21T03:12:28;97787.22;;;18.71;100.00
13867;BME280;7003;46.982;15.248;2023-08-21T03:14:58;97777.03;;;18.61;100.00
13867;BME280;7003;46.982;15.248;2023-08-21T03:17:27;97786.25;;;18.60;100.00
13867;BME280;7003;46.982;15.248;2023-08-21T03:19:56;97777.63;;;18.51;100.00
13867;BME280;7003;46.982;15.248;2023-08-21T03:22:25;97783.84;;;18.55;100.00
13867;BME280;7003;46.982;15.248;2023-08-21T03:24:52;97777.59;;;18.47;100.00
13867;BME280;7003;46.982;15.248;2023-08-21T03:27:19;97782.84;;;18.40;100.00
13867;BME280;7003;46.982;15.248;2023-08-21T03:29:47;97781.19;;;18.32;100.00
13867;BME280;7003;46.982;15.248;2023-08-21T03:32:15;97792.97;;;18.24;100.00
13867;BME280;7003;46.982;15.248;2023-08-21T03:34:42;97782.19;;;18.24;100.00
13867;BME280;7003;46.982;15.248;2023-08-21T03:37:10;97788.66;;;18.19;100.00
13867;BME280;7003;46.982;15.248;2023-08-21T03:39:41;97782.09;;;18.17;100.00
13867;BME280;7003;46.982;15.248;2023-08-21T03:42:11;97784.47;;;18.22;100.00
13867;BME280;7003;46.982;15.248;2023-08-21T03:44:41;97780.72;;;18.26;100.00
13867;BME280;7003;46.982;15.248;2023-08-21T03:47:11;97778.81;;;18.27;100.00
13867;BME280;7003;46.982;15.248;2023-08-21T03:49:42;97774.94;;;18.28;100.00
13867;BME280;7003;46.982;15.248;2023-08-21T03:52:11;97777.63;;;18.28;100.00
13867;BME280;7003;46.982;15.248;2023-08-21T03:54:42;97780.34;;;18.28;100.00
13867;BME280;7003;46.982;15.248;2023-08-21T03:57:10;97774.16;;;18.27;100.00
13867;BME280;7003;46.982;15.248;2023-08-21T03:59:41;97776.25;;;18.37;100.00
13867;BME280;7003;46.982;15.248;2023-08-21T04:02:11;97781.19;;;18.32;100.00
13867;BME280;7003;46.982;15.248;2023-08-21T04:04:38;97774.94;;;18.28;100.00
13867;BME280;7003;46.982;15.248;2023-08-21T04:07:08;97777.59;;;18.24;100.00
13867;BME280;7003;46.982;15.248;2023-08-21T04:09:37;97778.81;;;18.27;100.00
13867;BME280;7003;46.982;15.248;2023-08-21T04:12:07;97780.63;;;18.23;100.00
13867;BME280;7003;46.982;15.248;2023-08-21T04:14:34;97780.53;;;18.16;100.00
13867;BME280;7003;46.982;15.248;2023-08-21T04:17:02;97780.53;;;18.16;100.00
13867;BME280;7003;46.982;15.248;2023-08-21T04:19:29;97775.97;;;18.20;100.00
13867;BME280;7003;46.982;15.248;2023-08-21T04:22:02;97775.44;;;18.11;100.00
13867;BME280;7003;46.982;15.248;2023-08-21T04:24:31;97778.03;;;18.26;100.00
13867;BME280;7003;46.982;15.248;2023-08-21T04:27:01;97781.78;;;18.22;100.00
13867;BME280;7003;46.982;15.248;2023-08-21T04:29:32;97783.56;;;18.14;100.00
13867;BME280;7003;46.982;15.248;2023-08-21T04:32:03;97794.75;;;18.16;100.00
13867;BME280;7003;46.982;15.248;2023-08-21T04:34:33;97788.59;;;18.16;100.00
13867;BME280;7003;46.982;15.248;2023-08-21T04:37:03;97788.94;;;18.14;100.00
13867;BME280;7003;46.982;15.248;2023-08-21T04:39:31;97787.91;;;18.19;100.00
13867;BME280;7003;46.982;15.248;2023-08-21T04:42:01;97793.44;;;18.29;100.00
13867;BME280;7003;46.982;15.248;2023-08-21T04:44:32;97805.00;;;18.30;100.00
13867;BME280;7003;46.982;15.248;2023-08-21T04:47:19;97794.22;;;18.30;100.00
13867;BME280;7003;46.982;15.248;2023-08-21T04:49:49;97800.56;;;18.41;100.00
13867;BME280;7003;46.982;15.248;2023-08-21T04:52:19;97802.84;;;18.39;100.00
13867;BME280;7003;46.982;15.248;2023-08-21T04:54:49;97797.56;;;18.46;100.00
13867;BME280;7003;46.982;15.248;2023-08-21T04:57:17;97798.47;;;18.54;100.00
13867;BME280;7003;46.982;15.248;2023-08-21T04:59:48;97799.94;;;18.51;100.00
13867;BME280;7003;46.982;15.248;2023-08-21T05:02:16;97797.63;;;18.50;100.00
13867;BME280;7003;46.982;15.248;2023-08-21T05:04:43;97800.81;;;18.55;100.00
13867;BME280;7003;46.982;15.248;2023-08-21T05:07:11;97793.28;;;18.64;100.00
13867;BME280;7003;46.982;15.248;2023-08-21T05:09:39;97804.09;;;18.68;100.00
13867;BME280;7003;46.982;15.248;2023-08-21T05:12:09;97809.56;;;18.71;100.00
13867;BME280;7003;46.982;15.248;2023-08-21T05:14:36;97811.22;;;18.79;100.00
13867;BME280;7003;46.982;15.248;2023-08-21T05:17:05;97816.22;;;19.04;100.00
13867;BME280;7003;46.982;15.248;2023-08-21T05:19:32;97803.19;;;19.09;100.00
13867;BME280;7003;46.982;15.248;2023-08-21T05:22:00;97805.88;;;19.39;100.00
13867;BME280;7003;46.982;15.248;2023-08-21T05:24:27;97810.66;;;19.83;100.00
13867;BME280;7003;46.982;15.248;2023-08-21T05:26:55;97809.44;;;20.14;100.00
13867;BME280;7003;46.982;15.248;2023-08-21T05:29:26;97810.06;;;20.37;100.00
13867;BME280;7003;46.982;15.248;2023-08-21T05:31:55;97812.66;;;20.70;100.00
13867;BME280;7003;46.982;15.248;2023-08-21T05:34:25;97816.78;;;21.08;100.00
13867;BME280;7003;46.982;15.248;2023-08-21T05:36:52;97810.78;;;21.33;100.00
13867;BME280;7003;46.982;15.248;2023-08-21T05:39:21;97817.81;;;21.55;100.00
13867;BME280;7003;46.982;15.248;2023-08-21T05:41:50;97813.28;;;21.84;100.00
13867;BME280;7003;46.982;15.248;2023-08-21T05:44:18;97819.59;;;22.06;100.00
13867;BME280;7003;46.982;15.248;2023-08-21T05:46:46;97816.13;;;22.34;100.00
13867;BME280;7003;46.982;15.248;2023-08-21T05:49:13;97819.63;;;22.48;100.00
13867;BME280;7003;46.982;15.248;2023-08-21T05:51:45;97818.13;;;22.76;100.00
13867;BME280;7003;46.982;15.248;2023-08-21T05:54:13;97817.69;;;23.02;100.00
13867;BME280;7003;46.982;15.248;2023-08-21T05:56:41;97823.50;;;23.04;100.00
13867;BME280;7003;46.982;15.248;2023-08-21T05:59:10;97822.63;;;23.42;100.00
13867;BME280;7003;46.982;15.248;2023-08-21T06:01:40;97822.66;;;23.50;100.00
13867;BME280;7003;46.982;15.248;2023-08-21T06:04:08;97818.75;;;23.58;100.00
13867;BME280;7003;46.982;15.248;2023-08-21T06:06:35;97815.56;;;23.70;100.00
13867;BME280;7003;46.982;15.248;2023-08-21T06:09:07;97819.28;;;24.01;100.00
13867;BME280;7003;46.982;15.248;2023-08-21T06:11:37;97814.59;;;24.12;100.00
13867;BME280;7003;46.982;15.248;2023-08-21T06:14:08;97827.28;;;24.36;100.00
13867;BME280;7003;46.982;15.248;2023-08-21T06:16:35;97818.72;;;24.34;100.00
13867;BME280;7003;46.982;15.248;2023-08-21T06:19:03;97823.75;;;24.39;100.00
13867;BME280;7003;46.982;15.248;2023-08-21T06:21:33;97814.84;;;24.39;100.00
13867;BME280;7003;46.982;15.248;2023-08-21T06:24:00;97826.66;;;24.66;100.00
13867;BME280;7003;46.982;15.248;2023-08-21T06:26:29;97823.09;;;24.73;100.00
13867;BME280;7003;46.982;15.248;2023-08-21T06:28:57;97822.63;;;24.81;100.00
13867;BME280;7003;46.982;15.248;2023-08-21T06:31:24;97826.50;;;24.84;100.00
13867;BME280;7003;46.982;15.248;2023-08-21T06:33:54;97823.25;;;25.03;100.00
13867;BME280;7003;46.982;15.248;2023-08-21T06:36:22;97824.41;;;25.02;100.00
13867;BME280;7003;46.982;15.248;2023-08-21T06:38:54;97810.72;;;25.09;100.00
13867;BME280;7003;46.982;15.248;2023-08-21T06:41:25;97816.94;;;25.13;100.00
13867;BME280;7003;46.982;15.248;2023-08-21T06:43:58;97818.63;;;25.34;100.00
13867;BME280;7003;46.982;15.248;2023-08-21T06:46:30;97823.97;;;25.45;100.00
13867;BME280;7003;46.982;15.248;2023-08-21T06:49:04;97823.16;;;25.82;100.00
13867;BME280;7003;46.982;15.248;2023-08-21T06:51:35;97818.53;;;25.79;100.00
13867;BME280;7003;46.982;15.248;2023-08-21T06:54:07;97820.16;;;25.73;100.00
13867;BME280;7003;46.982;15.248;2023-08-21T06:56:38;97816.31;;;25.70;100.00
13867;BME280;7003;46.982;15.248;2023-08-21T06:59:11;97817.31;;;25.83;100.00
13867;BME280;7003;46.982;15.248;2023-08-21T07:01:42;97814.38;;;25.71;100.00
13867;BME280;7003;46.982;15.248;2023-08-21T07:04:18;97818.34;;;25.93;100.00
13867;BME280;7003;46.982;15.248;2023-08-21T07:06:55;97816.50;;;26.13;100.00
13867;BME280;7003;46.982;15.248;2023-08-21T07:09:27;97815.16;;;25.98;100.00
13867;BME280;7003;46.982;15.248;2023-08-21T07:12:01;97815.06;;;26.05;100.00
13867;BME280;7003;46.982;15.248;2023-08-21T07:14:34;97812.97;;;26.16;100.00
13867;BME280;7003;46.982;15.248;2023-08-21T07:17:02;97805.41;;;26.27;100.00
13867;BME280;7003;46.982;15.248;2023-08-21T07:19:30;97813.50;;;26.58;100.00
13867;BME280;7003;46.982;15.248;2023-08-21T07:22:00;97808.66;;;26.69;100.00
13867;BME280;7003;46.982;15.248;2023-08-21T07:24:31;97812.84;;;26.50;100.00
13867;BME280;7003;46.982;15.248;2023-08-21T07:27:02;97812.94;;;26.70;100.00
13867;BME280;7003;46.982;15.248;2023-08-21T07:29:30;97816.56;;;26.63;100.00
13867;BME280;7003;46.982;15.248;2023-08-21T07:31:59;97814.25;;;26.85;100.00
13867;BME280;7003;46.982;15.248;2023-08-21T07:34:29;97818.94;;;27.08;100.00
13867;BME280;7003;46.982;15.248;2023-08-21T07:36:57;97810.16;;;27.60;100.00
13867;BME280;7003;46.982;15.248;2023-08-21T07:39:27;97814.75;;;28.02;100.00
13867;BME280;7003;46.982;15.248;2023-08-21T07:41:55;97815.50;;;28.03;100.00
13867;BME280;7003;46.982;15.248;2023-08-21T07:44:26;97808.53;;;27.82;100.00
13867;BME280;7003;46.982;15.248;2023-08-21T07:46:54;97806.34;;;27.93;100.00
13867;BME280;7003;46.982;15.248;2023-08-21T07:49:26;97801.13;;;27.99;100.00
13867;BME280;7003;46.982;15.248;2023-08-21T07:51:55;97808.09;;;27.83;100.00
13867;BME280;7003;46.982;15.248;2023-08-21T07:54:23;97805.41;;;28.00;100.00
13867;BME280;7003;46.982;15.248;2023-08-21T07:56:51;97800.47;;;28.11;100.00
13867;BME280;7003;46.982;15.248;2023-08-21T07:59:19;97797.72;;;28.11;100.00
13867;BME280;7003;46.982;15.248;2023-08-21T08:01:51;97801.03;;;28.22;100.00
13867;BME280;7003;46.982;15.248;2023-08-21T08:04:22;97801.53;;;28.17;100.00
13867;BME280;7003;46.982;15.248;2023-08-21T08:06:54;97798.16;;;28.09;100.00
13867;BME280;7003;46.982;15.248;2023-08-21T08:09:25;97790.75;;;28.10;100.00
13867;BME280;7003;46.982;15.248;2023-08-21T08:11:54;97792.09;;;28.02;100.00
13867;BME280;7003;46.982;15.248;2023-08-21T08:14:22;97794.63;;;28.28;100.00
13867;BME280;7003;46.982;15.248;2023-08-21T08:16:50;97793.84;;;28.60;100.00
13867;BME280;7003;46.982;15.248;2023-08-21T08:19:21;97788.13;;;28.87;100.00
13867;BME280;7003;46.982;15.248;2023-08-21T08:21:52;97789.53;;;29.08;100.00
13867;BME280;7003;46.982;15.248;2023-08-21T08:24:21;97794.81;;;29.44;100.00
13867;BME280;7003;46.982;15.248;2023-08-21T08:26:49;97781.47;;;29.46;85.30
13867;BME280;7003;46.982;15.248;2023-08-21T08:29:17;97788.09;;;29.74;90.39
13867;BME280;7003;46.982;15.248;2023-08-21T08:31:44;97784.75;;;29.95;91.90
13867;BME280;7003;46.982;15.248;2023-08-21T08:34:11;97786.63;;;30.23;87.89
13867;BME280;7003;46.982;15.248;2023-08-21T08:36:41;97778.81;;;30.35;83.44
13867;BME280;7003;46.982;15.248;2023-08-21T08:39:10;97783.31;;;30.41;77.39
13867;BME280;7003;46.982;15.248;2023-08-21T08:41:43;97781.44;;;30.64;80.18
13867;BME280;7003;46.982;15.248;2023-08-21T08:44:16;97784.91;;;30.77;75.30
13867;BME280;7003;46.982;15.248;2023-08-21T08:46:44;97773.81;;;31.15;71.33
13867;BME280;7003;46.982;15.248;2023-08-21T08:49:13;97774.38;;;31.10;74.53
13867;BME280;7003;46.982;15.248;2023-08-21T08:51:42;97774.94;;;31.05;82.58
13867;BME280;7003;46.982;15.248;2023-08-21T08:54:12;97769.44;;;31.05;79.80
13867;BME280;7003;46.982;15.248;2023-08-21T08:56:41;97773.25;;;31.20;79.26
13867;BME280;7003;46.982;15.248;2023-08-21T08:59:13;97768.94;;;31.62;70.68
13867;BME280;7003;46.982;15.248;2023-08-21T09:01:41;97769.06;;;31.81;73.07
13867;BME280;7003;46.982;15.248;2023-08-21T09:04:09;97766.78;;;31.35;68.93
13867;BME280;7003;46.982;15.248;2023-08-21T09:06:37;97758.47;;;30.45;76.75
13867;BME280;7003;46.982;15.248;2023-08-21T09:09:06;97760.25;;;30.51;88.87
13867;BME280;7003;46.982;15.248;2023-08-21T09:11:43;97755.28;;;30.59;90.05
13867;BME280;7003;46.982;15.248;2023-08-21T09:14:11;97759.09;;;30.74;83.56
13867;BME280;7003;46.982;15.248;2023-08-21T09:16:59;97762.13;;;31.23;75.25
13867;BME280;7003;46.982;15.248;2023-08-21T09:19:29;97754.53;;;31.27;75.88
13867;BME280;7003;46.982;15.248;2023-08-21T09:21:56;97750.81;;;31.43;73.55
13867;BME280;7003;46.982;15.248;2023-08-21T09:24:26;97755.91;;;31.32;69.17
13867;BME280;7003;46.982;15.248;2023-08-21T09:26:55;97753.19;;;30.97;72.09
13867;BME280;7003;46.982;15.248;2023-08-21T09:29:38;97751.69;;;30.84;70.76
13867;BME280;7003;46.982;15.248;2023-08-21T09:32:06;97744.22;;;30.84;70.57
13867;BME280;7003;46.982;15.248;2023-08-21T09:34:34;97747.09;;;31.15;74.67
13867;BME280;7003;46.982;15.248;2023-08-21T09:37:06;97744.06;;;31.44;73.52
13867;BME280;7003;46.982;15.248;2023-08-21T09:39:34;97746.13;;;31.31;63.73
13867;BME280;7003;46.982;15.248;2023-08-21T09:42:09;97741.47;;;31.19;64.95
13867;BME280;7003;46.982;15.248;2023-08-21T09:44:38;97735.91;;;30.75;65.73
13867;BME280;7003;46.982;15.248;2023-08-21T09:47:11;97727.63;;;30.66;59.62
13867;BME280;7003;46.982;15.248;2023-08-21T09:49:40;97727.63;;;30.88;66.87
13867;BME280;7003;46.982;15.248;2023-08-21T09:52:09;97730.09;;;31.08;64.63
13867;BME280;7003;46.982;15.248;2023-08-21T09:54:41;97726.13;;;31.09;65.44
13867;BME280;7003;46.982;15.248;2023-08-21T09:57:14;97727.00;;;31.49;71.29
13867;BME280;7003;46.982;15.248;2023-08-21T09:59:43;97725.50;;;31.79;67.28
13867;BME280;7003;46.982;15.248;2023-08-21T10:02:11;97725.78;;;31.72;57.57
13867;BME280;7003;46.982;15.248;2023-08-21T10:04:44;97728.66;;;31.47;61.41
13867;BME280;7003;46.982;15.248;2023-08-21T10:07:12;97718.50;;;31.56;59.71
13867;BME280;7003;46.982;15.248;2023-08-21T10:09:41;97719.38;;;31.53;59.49
13867;BME280;7003;46.982;15.248;2023-08-21T10:12:09;97724.63;;;31.91;68.65
13867;BME280;7003;46.982;15.248;2023-08-21T10:14:39;97717.31;;;32.06;55.43
13867;BME280;7003;46.982;15.248;2023-08-21T10:17:06;97713.00;;;32.36;61.01
13867;BME280;7003;46.982;15.248;2023-08-21T10:19:36;97709.94;;;32.53;55.89
13867;BME280;7003;46.982;15.248;2023-08-21T10:22:07;97709.06;;;32.06;60.47
13867;BME280;7003;46.982;15.248;2023-08-21T10:24:37;97708.25;;;32.28;55.73
13867;BME280;7003;46.982;15.248;2023-08-21T10:27:07;97700.66;;;32.59;61.57
13867;BME280;7003;46.982;15.248;2023-08-21T10:29:40;97704.50;;;32.89;57.43
13867;BME280;7003;46.982;15.248;2023-08-21T10:32:10;97702.78;;;33.01;55.90
13867;BME280;7003;46.982;15.248;2023-08-21T10:34:37;97707.84;;;33.20;49.65
13867;BME280;7003;46.982;15.248;2023-08-21T10:37:09;97704.44;;;33.44;49.91
13867;BME280;7003;46.982;15.248;2023-08-21T10:39:54;97701.75;;;32.89;50.08
13867;BME280;7003;46.982;15.248;2023-08-21T10:42:37;97698.22;;;32.89;48.14
13867;BME280;7003;46.982;15.248;2023-08-21T10:45:11;97709.69;;;32.69;50.93
13867;BME280;7003;46.982;15.248;2023-08-21T10:47:40;97698.94;;;32.62;43.55
13867;BME280;7003;46.982;15.248;2023-08-21T10:50:09;97702.88;;;32.24;44.88
13867;BME280;7003;46.982;15.248;2023-08-21T10:52:38;97700.13;;;32.24;49.48
13867;BME280;7003;46.982;15.248;2023-08-21T10:55:08;97692.81;;;32.39;49.04
13867;BME280;7003;46.982;15.248;2023-08-21T10:57:39;97694.53;;;32.64;50.23
13867;BME280;7003;46.982;15.248;2023-08-21T11:00:14;97692.41;;;32.68;46.73
13867;BME280;7003;46.982;15.248;2023-08-21T11:02:43;97696.81;;;32.93;47.34
13867;BME280;7003;46.982;15.248;2023-08-21T11:05:14;97698.22;;;32.98;49.74
13867;BME280;7003;46.982;15.248;2023-08-21T11:07:46;97700.81;;;32.74;44.68
13867;BME280;7003;46.982;15.248;2023-08-21T11:10:16;97689.19;;;32.97;47.46
13867;BME280;7003;46.982;15.248;2023-08-21T11:12:51;97695.28;;;32.92;44.96
13867;BME280;7003;46.982;15.248;2023-08-21T11:15:20;97690.09;;;33.21;51.13
13867;BME280;7003;46.982;15.248;2023-08-21T11:17:52;97691.75;;;33.19;45.75
13867;BME280;7003;46.982;15.248;2023-08-21T11:20:27;97693.97;;;33.57;48.06
13867;BME280;7003;46.982;15.248;2023-08-21T11:22:58;97688.44;;;33.57;47.96
13867;BME280;7003;46.982;15.248;2023-08-21T11:25:26;97693.03;;;33.60;48.42
13867;BME280;7003;46.982;15.248;2023-08-21T11:27:54;97689.06;;;33.94;51.44
13867;BME280;7003;46.982;15.248;2023-08-21T11:30:23;97682.16;;;33.56;44.27
13867;BME280;7003;46.982;15.248;2023-08-21T11:33:07;97686.69;;;33.08;47.73
13867;BME280;7003;46.982;15.248;2023-08-21T11:35:35;97687.28;;;33.31;46.65
13867;BME280;7003;46.982;15.248;2023-08-21T11:38:03;97687.34;;;33.73;46.78
13867;BME280;7003;46.982;15.248;2023-08-21T11:40:34;97685.59;;;33.84;50.21
13867;BME280;7003;46.982;15.248;2023-08-21T11:43:03;97686.63;;;33.96;47.77
13867;BME280;7003;46.982;15.248;2023-08-21T11:45:33;97683.28;;;34.40;48.41
13867;BME280;7003;46.982;15.248;2023-08-21T11:48:04;97676.19;;;34.48;44.56
13867;BME280;7003;46.982;15.248;2023-08-21T11:50:35;97682.44;;;34.33;46.36
13867;BME280;7003;46.982;15.248;2023-08-21T11:53:05;97676.81;;;34.19;43.75
13867;BME280;7003;46.982;15.248;2023-08-21T11:55:35;97681.69;;;34.48;45.49
13867;BME280;7003;46.982;15.248;2023-08-21T11:58:05;97683.88;;;34.67;48.46
13867;BME280;7003;46.982;15.248;2023-08-21T12:00:40;97680.59;;;34.93;47.25
13867;BME280;7003;46.982;15.248;2023-08-21T12:03:17;97678.84;;;34.81;40.54
13867;BME280;7003;46.982;15.248;2023-08-21T12:05:47;97685.34;;;34.54;39.74
13867;BME280;7003;46.982;15.248;2023-08-21T12:08:15;97671.72;;;34.74;44.93
13867;BME280;7003;46.982;15.248;2023-08-21T12:10:42;97671.34;;;34.81;40.39
13867;BME280;7003;46.982;15.248;2023-08-21T12:13:10;97675.94;;;34.99;41.99
13867;BME280;7003;46.982;15.248;2023-08-21T12:15:39;97668.81;;;34.68;40.61
13867;BME280;7003;46.982;15.248;2023-08-21T12:18:06;97670.28;;;34.93;44.08
13867;BME280;7003;46.982;15.248;2023-08-21T12:20:36;97668.28;;;34.94;39.17
13867;BME280;7003;46.982;15.248;2023-08-21T12:23:06;97670.78;;;34.92;39.92
13867;BME280;7003;46.982;15.248;2023-08-21T12:25:36;97659.72;;;35.21;41.89
13867;BME280;7003;46.982;15.248;2023-08-21T12:28:04;97660.22;;;35.05;38.45
13867;BME280;7003;46.982;15.248;2023-08-21T12:30:32;97657.31;;;34.85;37.32
13867;BME280;7003;46.982;15.248;2023-08-21T12:33:01;97658.59;;;34.60;40.39
13867;BME280;7003;46.982;15.248;2023-08-21T12:35:28;97654.47;;;34.55;39.49
13867;BME280;7003;46.982;15.248;2023-08-21T12:37:58;97651.91;;;34.76;44.56
13867;BME280;7003;46.982;15.248;2023-08-21T12:40:34;97654.75;;;34.81;43.26
13867;BME280;7003;46.982;15.248;2023-08-21T12:43:02;97654.69;;;34.52;42.00
13867;BME280;7003;46.982;15.248;2023-08-21T12:45:32;97653.34;;;34.62;44.00
13867;BME280;7003;46.982;15.248;2023-08-21T12:48:05;97648.84;;;34.88;38.90
13867;BME280;7003;46.982;15.248;2023-08-21T12:50:34;97646.22;;;35.23;37.27
13867;BME280;7003;46.982;15.248;2023-08-21T12:53:03;97648.03;;;35.26;38.54
13867;BME280;7003;46.982;15.248;2023-08-21T12:55:30;97645.63;;;35.19;38.39
13867;BME280;7003;46.982;15.248;2023-08-21T12:57:58;97646.09;;;34.88;40.93
13867;BME280;7003;46.982;15.248;2023-08-21T13:00:25;97644.84;;;35.04;43.04
13867;BME280;7003;46.982;15.248;2023-08-21T13:02:55;97636.50;;;35.28;43.77
13867;BME280;7003;46.982;15.248;2023-08-21T13:05:26;97642.09;;;35.19;41.89